createdAt,value
2022-08-27T00:01:22.691Z,20.83
2022-08-27T00:06:24.783Z,20.81
2022-08-27T00:11:24.395Z,20.73
2022-08-27T00:16:23.661Z,20.72
2022-08-27T00:21:22.474Z,20.72
2022-08-27T00:26:22.688Z,20.64
2022-08-27T00:31:23.697Z,20.53
2022-08-27T00:36:23.183Z,20.44
2022-08-27T00:41:23.501Z,20.47
2022-08-27T00:46:26.660Z,20.44
2022-08-27T00:51:23.217Z,20.35
2022-08-27T00:56:25.961Z,20.33
2022-08-27T01:01:26.792Z,20.32
2022-08-27T01:06:27.492Z,20.23
2022-08-27T01:11:23.944Z,20.08
2022-08-27T01:16:25.931Z,20.01
2022-08-27T01:21:29.751Z,19.94
2022-08-27T01:26:22.502Z,19.88
2022-08-27T01:31:22.658Z,19.95
2022-08-27T01:36:22.551Z,19.91
2022-08-27T01:41:23.389Z,19.77
2022-08-27T01:46:26.287Z,19.84
2022-08-27T01:51:22.129Z,19.82
2022-08-27T01:56:22.081Z,19.78
2022-08-27T02:01:22.224Z,19.71
2022-08-27T02:04:37.536Z,19.69
2022-08-27T02:06:22.283Z,19.69
2022-08-27T02:11:22.214Z,19.63
2022-08-27T02:16:22.187Z,19.58
2022-08-27T02:21:22.053Z,19.48
2022-08-27T02:26:22.974Z,19.45
2022-08-27T02:26:40.447Z,19.45
2022-08-27T02:28:17.351Z,19.30
2022-08-27T02:29:01.273Z,19.30
2022-08-27T02:31:22.732Z,19.30
2022-08-27T02:36:22.092Z,19.16
2022-08-27T02:41:22.938Z,19.20
2022-08-27T02:46:22.251Z,19.12
2022-08-27T02:50:55.289Z,19.14
2022-08-27T02:51:22.145Z,19.14
2022-08-27T02:53:59.205Z,19.14
2022-08-27T02:56:22.208Z,19.14
2022-08-27T03:01:22.131Z,19.09
2022-08-27T03:06:22.385Z,18.94
2022-08-27T03:11:23.054Z,18.85
2022-08-27T03:11:56.652Z,18.84
2022-08-27T03:15:23.889Z,18.84
2022-08-27T03:16:22.211Z,18.84
2022-08-27T03:17:27.850Z,18.78
2022-08-27T03:21:24.221Z,18.78
2022-08-27T03:26:22.064Z,18.82
2022-08-27T03:26:24.305Z,18.82
2022-08-27T03:31:25.986Z,18.76
2022-08-27T03:32:03.786Z,18.68
2022-08-27T03:35:01.717Z,18.68
2022-08-27T03:36:22.627Z,18.68
2022-08-27T03:41:23.613Z,18.63
2022-08-27T03:46:22.160Z,18.65
2022-08-27T03:47:41.105Z,18.68
2022-08-27T03:51:22.330Z,18.68
2022-08-27T03:56:22.638Z,18.74
2022-08-27T04:01:22.042Z,18.76
2022-08-27T04:06:22.037Z,18.73
2022-08-27T04:11:22.975Z,18.72
2022-08-27T04:16:22.260Z,18.75
2022-08-27T04:21:22.164Z,18.76
2022-08-27T04:24:20.108Z,18.79
2022-08-27T04:26:22.592Z,18.79
2022-08-27T04:31:22.034Z,18.88
2022-08-27T04:36:22.836Z,19.00
2022-08-27T04:37:39.410Z,19.12
2022-08-27T04:41:24.037Z,19.12
2022-08-27T04:46:24.501Z,19.18
2022-08-27T04:51:23.013Z,19.15
2022-08-27T04:56:23.951Z,19.25
2022-08-27T05:01:24.713Z,19.37
2022-08-27T05:06:22.406Z,19.49
2022-08-27T05:11:25.524Z,19.61
2022-08-27T05:16:22.359Z,19.81
2022-08-27T05:21:25.049Z,19.84
2022-08-27T05:26:22.508Z,19.86
2022-08-27T05:27:04.636Z,19.97
2022-08-27T05:31:22.269Z,19.97
2022-08-27T05:36:25.250Z,20.12
2022-08-27T05:40:19.808Z,20.34
2022-08-27T05:41:33.925Z,20.34
2022-08-27T05:46:24.216Z,20.52
2022-08-27T05:48:21.863Z,20.74
2022-08-27T05:51:25.679Z,20.74
2022-08-27T05:56:24.444Z,21.16
2022-08-27T06:01:22.667Z,21.53
2022-08-27T06:06:22.235Z,21.81
2022-08-27T06:11:22.539Z,22.16
2022-08-27T06:16:22.913Z,22.61
2022-08-27T06:21:24.775Z,23.04
2022-08-27T06:25:41.517Z,23.49
2022-08-27T06:26:24.321Z,23.49
2022-08-27T06:29:10.902Z,23.79
2022-08-27T06:31:24.679Z,23.79
2022-08-27T06:34:17.815Z,24.21
2022-08-27T06:36:25.469Z,24.21
2022-08-27T06:41:25.773Z,24.62
2022-08-27T06:46:25.163Z,25.09
2022-08-27T06:51:25.318Z,25.52
2022-08-27T06:51:36.215Z,25.52
2022-08-27T06:56:22.815Z,25.93
2022-08-27T07:01:26.214Z,26.52
2022-08-27T07:06:23.053Z,26.87
2022-08-27T07:11:22.137Z,27.37
2022-08-27T07:16:23.883Z,27.81
2022-08-27T07:21:23.183Z,28.25
2022-08-27T07:24:11.319Z,29.01
2022-08-27T07:26:22.795Z,29.01
2022-08-27T07:31:22.639Z,29.27
2022-08-27T07:31:31.396Z,29.27
2022-08-27T07:36:23.412Z,30.14
2022-08-27T07:41:21.962Z,30.64
2022-08-27T07:46:23.194Z,31.58
2022-08-27T07:51:24.755Z,31.83
2022-08-27T07:56:22.451Z,33.22
2022-08-27T08:00:55.585Z,34.25
2022-08-27T08:01:23.106Z,34.25
2022-08-27T08:06:22.299Z,35.04
2022-08-27T08:11:22.159Z,35.70
2022-08-27T08:16:24.712Z,36.36
2022-08-27T08:21:22.299Z,36.56
2022-08-27T08:26:22.891Z,37.06
2022-08-27T08:31:23.080Z,38.13
2022-08-27T08:36:22.169Z,38.09
2022-08-27T08:41:38.224Z,37.89
2022-08-27T08:46:30.176Z,38.37
2022-08-27T08:51:28.264Z,38.08
2022-08-27T08:56:01.023Z,38.10
2022-08-27T08:56:26.314Z,38.10
2022-08-27T09:01:23.719Z,38.76
2022-08-27T09:06:31.290Z,38.90
2022-08-27T09:11:27.390Z,38.86
2022-08-27T09:16:22.803Z,38.52
2022-08-27T09:21:30.391Z,38.88
2022-08-27T09:26:26.831Z,39.35
2022-08-27T09:31:22.204Z,39.77
2022-08-27T09:36:23.903Z,39.31
2022-08-27T09:41:27.278Z,39.16
2022-08-27T09:46:24.989Z,38.90
2022-08-27T09:51:24.731Z,39.52
2022-08-27T09:56:28.342Z,38.89
2022-08-27T10:01:24.736Z,38.73
2022-08-27T10:06:26.850Z,38.97
2022-08-27T10:11:30.363Z,39.26
2022-08-27T10:16:41.261Z,38.51
2022-08-27T10:21:29.706Z,38.59
2022-08-27T10:26:29.596Z,37.85
2022-08-27T10:31:30.461Z,37.79
2022-08-27T10:36:33.168Z,37.67
2022-08-27T10:41:27.467Z,37.50
2022-08-27T10:46:35.469Z,37.54
2022-08-27T10:51:01.607Z,37.14
2022-08-27T10:51:28.346Z,37.14
2022-08-27T10:56:30.189Z,37.30
2022-08-27T11:01:33.600Z,36.17
2022-08-27T11:06:26.641Z,35.62
2022-08-27T11:07:23.734Z,35.52
2022-08-27T11:12:12.819Z,35.52
2022-08-27T11:16:25.519Z,35.48
2022-08-27T11:21:34.401Z,35.24
2022-08-27T11:26:21.944Z,34.66
2022-08-27T11:31:33.288Z,34.31
2022-08-27T11:36:42.125Z,34.11
2022-08-27T11:41:44.752Z,33.84
2022-08-27T11:46:25.497Z,34.03
2022-08-27T11:49:45.927Z,34.03
2022-08-27T11:51:29.333Z,34.03
2022-08-27T11:56:35.983Z,33.94
2022-08-27T12:01:26.802Z,33.89
2022-08-27T12:06:25.582Z,33.77
2022-08-27T12:11:33.592Z,33.84
2022-08-27T12:16:30.076Z,33.91
2022-08-27T12:21:31.452Z,33.92
2022-08-27T12:26:30.284Z,34.02
2022-08-27T12:31:22.741Z,33.87
2022-08-27T12:36:28.280Z,34.02
2022-08-27T12:41:26.940Z,33.60
2022-08-27T12:46:21.939Z,33.53
2022-08-27T12:51:25.064Z,33.32
2022-08-27T12:56:34.878Z,32.93
2022-08-27T13:01:32.850Z,32.75
2022-08-27T13:11:25.060Z,32.64
2022-08-27T13:15:18.901Z,32.67
2022-08-27T13:16:22.436Z,32.67
2022-08-27T13:21:26.488Z,32.70
2022-08-27T13:26:24.193Z,32.45
2022-08-27T13:31:24.533Z,32.19
2022-08-27T13:36:26.947Z,32.05
2022-08-27T13:41:28.024Z,31.95
2022-08-27T13:46:25.522Z,31.79
2022-08-27T13:51:25.871Z,31.62
2022-08-27T13:56:24.725Z,31.52
2022-08-27T14:01:27.428Z,31.50
2022-08-27T14:06:23.597Z,31.48
2022-08-27T14:11:26.203Z,31.43
2022-08-27T14:16:27.083Z,31.33
2022-08-27T14:21:21.941Z,31.25
2022-08-27T14:26:25.955Z,31.22
2022-08-27T14:31:22.642Z,31.37
2022-08-27T14:36:23.879Z,31.48
2022-08-27T14:41:21.952Z,31.44
2022-08-27T14:46:25.281Z,31.60
2022-08-27T14:51:25.994Z,31.59
2022-08-27T14:56:23.860Z,31.49
2022-08-27T15:01:24.191Z,31.52
2022-08-27T15:06:23.741Z,31.51
2022-08-27T15:11:24.879Z,31.38
2022-08-27T15:16:30.917Z,31.32
2022-08-27T15:21:22.550Z,31.33
2022-08-27T15:26:22.250Z,31.13
2022-08-27T15:31:22.384Z,31.00
2022-08-27T15:36:21.957Z,30.93
2022-08-27T15:41:25.148Z,30.80
2022-08-27T15:46:22.022Z,30.57
2022-08-27T15:51:28.064Z,30.39
2022-08-27T15:56:23.025Z,30.17
2022-08-27T16:01:29.137Z,30.05
2022-08-27T16:06:22.141Z,29.96
2022-08-27T16:11:22.195Z,29.86
2022-08-27T16:16:24.299Z,29.79
2022-08-27T16:21:22.003Z,29.65
2022-08-27T16:26:22.444Z,29.61
2022-08-27T16:31:21.694Z,29.52
2022-08-27T16:36:22.377Z,29.40
2022-08-27T16:41:22.283Z,29.30
2022-08-27T16:46:21.956Z,29.21
2022-08-27T16:51:32.647Z,29.13
2022-08-27T16:56:26.383Z,28.99
2022-08-27T17:01:22.952Z,28.85
2022-08-27T17:06:22.576Z,28.69
2022-08-27T17:11:25.825Z,28.58
2022-08-27T17:16:23.808Z,28.45
2022-08-27T17:21:25.510Z,28.33
2022-08-27T17:26:22.206Z,28.20
2022-08-27T17:31:28.140Z,28.06
2022-08-27T17:36:22.878Z,27.92
2022-08-27T17:41:25.772Z,27.76
2022-08-27T17:46:21.799Z,27.65
2022-08-27T17:51:22.587Z,27.53
2022-08-27T17:56:22.588Z,27.37
2022-08-27T18:01:25.050Z,27.24
2022-08-27T18:06:22.667Z,27.09
2022-08-27T18:11:22.219Z,26.99
2022-08-27T18:16:22.235Z,26.79
2022-08-27T18:21:25.594Z,26.63
2022-08-27T18:26:26.943Z,26.51
2022-08-27T18:31:26.448Z,26.38
2022-08-27T18:36:22.059Z,26.25
2022-08-27T18:41:22.264Z,26.12
2022-08-27T18:46:21.729Z,25.96
2022-08-27T18:51:22.171Z,25.83
2022-08-27T18:56:21.650Z,25.70
2022-08-27T19:01:25.348Z,25.59
2022-08-27T19:06:22.481Z,25.41
2022-08-27T19:11:21.964Z,25.27
2022-08-27T19:16:31.862Z,25.12
2022-08-27T19:21:21.849Z,25.00
2022-08-27T19:26:24.716Z,24.91
2022-08-27T19:31:22.048Z,24.83
2022-08-27T19:36:22.452Z,24.69
2022-08-27T19:41:25.941Z,24.58
2022-08-27T19:46:23.535Z,24.52
2022-08-27T19:51:21.697Z,24.45
2022-08-27T19:56:21.688Z,24.35
2022-08-27T20:01:21.779Z,24.25
2022-08-27T20:06:22.125Z,24.17
2022-08-27T20:11:22.245Z,24.12
2022-08-27T20:16:21.696Z,24.10
2022-08-27T20:21:21.886Z,24.03
2022-08-27T20:26:23.723Z,23.95
2022-08-27T20:31:21.702Z,23.90
2022-08-27T20:36:25.188Z,23.82
2022-08-27T20:41:21.672Z,23.83
2022-08-27T20:46:25.082Z,23.75
2022-08-27T20:51:22.675Z,23.73
2022-08-27T20:56:21.704Z,23.71
2022-08-27T21:01:21.768Z,23.68
2022-08-27T21:06:26.231Z,23.64
2022-08-27T21:11:22.097Z,23.60
2022-08-27T21:16:21.863Z,23.52
2022-08-27T21:21:22.216Z,23.50
2022-08-27T21:26:21.909Z,23.49
2022-08-27T21:31:21.695Z,23.47
2022-08-27T21:36:21.964Z,23.46
2022-08-27T21:41:22.227Z,23.49
2022-08-27T21:46:21.589Z,23.41
2022-08-27T21:51:24.371Z,23.29
2022-08-27T21:56:21.680Z,23.19
2022-08-27T22:01:21.833Z,23.14
2022-08-27T22:06:21.650Z,23.13
2022-08-27T22:11:24.239Z,23.16
2022-08-27T22:16:21.732Z,22.86
2022-08-27T22:21:21.611Z,22.77
2022-08-27T22:26:21.622Z,22.53
2022-08-27T22:31:22.062Z,22.35
2022-08-27T22:36:21.814Z,22.15
2022-08-27T22:41:21.571Z,21.98
2022-08-27T22:46:21.765Z,21.97
2022-08-27T22:51:21.604Z,21.93
2022-08-27T22:56:21.850Z,21.74
2022-08-27T23:01:21.780Z,21.65
2022-08-27T23:06:21.866Z,21.59
2022-08-27T23:11:22.114Z,21.47
2022-08-27T23:16:21.793Z,21.25
2022-08-27T23:21:21.951Z,21.25
2022-08-27T23:26:31.591Z,21.24
2022-08-27T23:31:22.342Z,21.07
2022-08-27T23:36:22.059Z,20.92
2022-08-27T23:41:21.697Z,20.88
2022-08-27T23:46:22.004Z,20.82
2022-08-27T23:51:21.742Z,20.67
2022-08-27T23:56:21.650Z,20.51
